sensor_id;sensor_type;location;lat;lon;timestamp;pressure;altitude;pressure_sealevel;temperature;humidity
17060;BME280;8646;49.716;9.266;2023-04-30T00:00:35;100702.97;;;12.97;84.77
17060;BME280;8646;49.716;9.266;2023-04-30T00:03:38;100700.34;;;12.96;84.56
17060;BME280;8646;49.716;9.266;2023-04-30T00:06:40;100708.41;;;12.97;84.58
17060;BME280;8646;49.716;9.266;2023-04-30T00:09:43;100704.03;;;12.95;84.84
17060;BME280;8646;49.716;9.266;2023-04-30T00:12:47;100713.19;;;12.92;84.99
17060;BME280;8646;49.716;9.266;2023-04-30T00:15:50;100708.69;;;12.91;84.75
17060;BME280;8646;49.716;9.266;2023-04-30T00:18:53;100713.25;;;12.91;84.86
17060;BME280;8646;49.716;9.266;2023-04-30T00:21:55;100703.34;;;12.90;84.90
17060;BME280;8646;49.716;9.266;2023-04-30T00:24:58;100710.59;;;12.89;84.96
17060;BME280;8646;49.716;9.266;2023-04-30T00:28:03;100703.50;;;12.87;85.61
17060;BME280;8646;49.716;9.266;2023-04-30T00:31:05;100703.91;;;12.78;85.43
17060;BME280;8646;49.716;9.266;2023-04-30T00:34:09;100702.16;;;12.77;85.50
17060;BME280;8646;49.716;9.266;2023-04-30T00:37:12;100710.28;;;12.77;85.61
17060;BME280;8646;49.716;9.266;2023-04-30T00:40:15;100715.72;;;12.77;85.50
17060;BME280;8646;49.716;9.266;2023-04-30T00:43:19;100707.69;;;12.74;85.83
17060;BME280;8646;49.716;9.266;2023-04-30T00:46:22;100715.78;;;12.75;86.68
17060;BME280;8646;49.716;9.266;2023-04-30T00:49:25;100721.63;;;12.66;87.56
17060;BME280;8646;49.716;9.266;2023-04-30T00:52:28;100727.41;;;12.58;87.80
17060;BME280;8646;49.716;9.266;2023-04-30T00:55:31;100730.13;;;12.58;87.79
17060;BME280;8646;49.716;9.266;2023-04-30T00:58:35;100729.19;;;12.59;87.83
17060;BME280;8646;49.716;9.266;2023-04-30T01:01:38;100729.06;;;12.63;88.37
17060;BME280;8646;49.716;9.266;2023-04-30T01:04:42;100729.06;;;12.63;88.68
17060;BME280;8646;49.716;9.266;2023-04-30T01:07:44;100731.94;;;12.58;88.58
17060;BME280;8646;49.716;9.266;2023-04-30T01:10:52;100728.28;;;12.59;88.72
17060;BME280;8646;49.716;9.266;2023-04-30T01:14:09;100730.94;;;12.60;88.58
17060;BME280;8646;49.716;9.266;2023-04-30T01:17:17;100733.72;;;12.59;88.48
17060;BME280;8646;49.716;9.266;2023-04-30T01:20:25;100734.66;;;12.58;88.33
17060;BME280;8646;49.716;9.266;2023-04-30T01:23:41;100740.97;;;12.58;88.05
17060;BME280;8646;49.716;9.266;2023-04-30T01:26:56;100749.13;;;12.58;87.98
17060;BME280;8646;49.716;9.266;2023-04-30T01:30:04;100739.16;;;12.59;87.82
17060;BME280;8646;49.716;9.266;2023-04-30T01:33:06;100744.75;;;12.56;87.68
17060;BME280;8646;49.716;9.266;2023-04-30T01:36:20;100743.84;;;12.55;87.50
17060;BME280;8646;49.716;9.266;2023-04-30T01:39:38;100743.03;;;12.53;87.73
17060;BME280;8646;49.716;9.266;2023-04-30T01:42:51;100742.16;;;12.53;87.69
17060;BME280;8646;49.716;9.266;2023-04-30T01:46:05;100737.66;;;12.52;87.67
17060;BME280;8646;49.716;9.266;2023-04-30T01:49:16;100743.09;;;12.52;88.03
17060;BME280;8646;49.716;9.266;2023-04-30T01:52:29;100743.97;;;12.52;87.93
17060;BME280;8646;49.716;9.266;2023-04-30T01:55:35;100749.47;;;12.51;87.77
17060;BME280;8646;49.716;9.266;2023-04-30T01:58:39;100749.53;;;12.49;87.88
17060;BME280;8646;49.716;9.266;2023-04-30T02:01:43;100746.91;;;12.48;87.32
17060;BME280;8646;49.716;9.266;2023-04-30T02:04:47;100747.84;;;12.47;87.41
17060;BME280;8646;49.716;9.266;2023-04-30T02:07:51;100740.94;;;12.40;87.60
17060;BME280;8646;49.716;9.266;2023-04-30T02:10:53;100741.88;;;12.39;87.71
17060;BME280;8646;49.716;9.266;2023-04-30T02:13:56;100744.66;;;12.37;87.76
17060;BME280;8646;49.716;9.266;2023-04-30T02:17:00;100739.22;;;12.37;87.74
17060;BME280;8646;49.716;9.266;2023-04-30T02:20:04;100739.22;;;12.37;87.69
17060;BME280;8646;49.716;9.266;2023-04-30T02:23:07;100744.66;;;12.37;87.76
17060;BME280;8646;49.716;9.266;2023-04-30T02:26:11;100748.97;;;12.41;88.27
17060;BME280;8646;49.716;9.266;2023-04-30T02:29:13;100758.28;;;12.36;88.94
17060;BME280;8646;49.716;9.266;2023-04-30T02:32:19;100752.91;;;12.34;88.90
17060;BME280;8646;49.716;9.266;2023-04-30T02:35:22;100745.03;;;12.28;89.73
17060;BME280;8646;49.716;9.266;2023-04-30T02:38:24;100756.34;;;12.17;90.23
17060;BME280;8646;49.716;9.266;2023-04-30T02:41:27;100763.47;;;12.20;90.44
17060;BME280;8646;49.716;9.266;2023-04-30T02:44:31;100752.00;;;12.13;91.01
17060;BME280;8646;49.716;9.266;2023-04-30T02:47:35;100755.66;;;12.12;91.17
17060;BME280;8646;49.716;9.266;2023-04-30T02:50:37;100760.31;;;12.09;91.52
17060;BME280;8646;49.716;9.266;2023-04-30T02:53:40;100760.59;;;12.03;91.97
17060;BME280;8646;49.716;9.266;2023-04-30T02:56:43;100759.97;;;11.96;91.63
17060;BME280;8646;49.716;9.266;2023-04-30T02:59:53;100750.88;;;11.97;91.57
17060;BME280;8646;49.716;9.266;2023-04-30T03:02:58;100749.00;;;11.99;92.02
17060;BME280;8646;49.716;9.266;2023-04-30T03:06:02;100749.19;;;11.95;91.85
17060;BME280;8646;49.716;9.266;2023-04-30T03:09:05;100746.34;;;11.98;91.64
17060;BME280;8646;49.716;9.266;2023-04-30T03:12:08;100756.25;;;11.99;91.75
17060;BME280;8646;49.716;9.266;2023-04-30T03:15:11;100758.13;;;11.97;91.77
17060;BME280;8646;49.716;9.266;2023-04-30T03:18:15;100759.72;;;12.02;91.54
17060;BME280;8646;49.716;9.266;2023-04-30T03:21:18;100757.00;;;12.02;92.08
17060;BME280;8646;49.716;9.266;2023-04-30T03:24:21;100756.94;;;12.04;91.84
17060;BME280;8646;49.716;9.266;2023-04-30T03:27:25;100757.06;;;12.01;92.30
17060;BME280;8646;49.716;9.266;2023-04-30T03:30:28;100753.78;;;11.93;92.57
17060;BME280;8646;49.716;9.266;2023-04-30T03:33:32;100757.47;;;11.92;92.83
17060;BME280;8646;49.716;9.266;2023-04-30T03:36:34;100756.75;;;11.87;92.57
17060;BME280;8646;49.716;9.266;2023-04-30T03:39:37;100759.47;;;11.87;92.77
17060;BME280;8646;49.716;9.266;2023-04-30T03:42:40;100759.47;;;11.87;92.62
17060;BME280;8646;49.716;9.266;2023-04-30T03:45:43;100753.09;;;11.88;92.37
17060;BME280;8646;49.716;9.266;2023-04-30T03:48:47;100745.91;;;11.87;91.85
17060;BME280;8646;49.716;9.266;2023-04-30T03:51:50;100746.84;;;11.85;91.68
17060;BME280;8646;49.716;9.266;2023-04-30T03:54:53;100744.06;;;11.87;91.58
17060;BME280;8646;49.716;9.266;2023-04-30T03:57:55;100742.44;;;11.83;91.46
17060;BME280;8646;49.716;9.266;2023-04-30T04:00:58;100745.22;;;11.81;91.48
17060;BME280;8646;49.716;9.266;2023-04-30T04:04:02;100746.16;;;11.80;91.66
17060;BME280;8646;49.716;9.266;2023-04-30T04:07:06;100748.03;;;11.78;91.55
17060;BME280;8646;49.716;9.266;2023-04-30T04:10:10;100753.63;;;11.75;91.70
17060;BME280;8646;49.716;9.266;2023-04-30T04:13:12;100746.31;;;11.76;91.57
17060;BME280;8646;49.716;9.266;2023-04-30T04:16:15;100748.19;;;11.75;91.84
17060;BME280;8646;49.716;9.266;2023-04-30T04:19:19;100752.63;;;11.76;91.58
17060;BME280;8646;49.716;9.266;2023-04-30T04:22:23;100757.94;;;11.79;92.09
17060;BME280;8646;49.716;9.266;2023-04-30T04:25:25;100756.31;;;11.75;92.10
17060;BME280;8646;49.716;9.266;2023-04-30T04:28:29;100760.94;;;11.72;92.32
17060;BME280;8646;49.716;9.266;2023-04-30T04:31:34;100751.91;;;11.71;92.21
17060;BME280;8646;49.716;9.266;2023-04-30T04:34:38;100766.09;;;11.79;92.04
17060;BME280;8646;49.716;9.266;2023-04-30T04:37:41;100768.59;;;11.84;91.91
17060;BME280;8646;49.716;9.266;2023-04-30T04:40:50;100773.97;;;11.85;91.85
17060;BME280;8646;49.716;9.266;2023-04-30T04:43:52;100772.97;;;11.88;91.46
17060;BME280;8646;49.716;9.266;2023-04-30T04:46:57;100764.78;;;11.90;91.29
17060;BME280;8646;49.716;9.266;2023-04-30T04:50:09;100776.25;;;11.96;90.81
17060;BME280;8646;49.716;9.266;2023-04-30T04:53:12;100768.72;;;12.03;90.52
17060;BME280;8646;49.716;9.266;2023-04-30T04:56:14;100773.22;;;12.04;90.43
17060;BME280;8646;49.716;9.266;2023-04-30T04:59:17;100773.00;;;12.08;90.38
17060;BME280;8646;49.716;9.266;2023-04-30T05:02:20;100767.41;;;12.13;89.97
17060;BME280;8646;49.716;9.266;2023-04-30T05:05:25;100775.34;;;12.17;90.13
17060;BME280;8646;49.716;9.266;2023-04-30T05:08:28;100772.56;;;12.19;90.16
17060;BME280;8646;49.716;9.266;2023-04-30T05:11:30;100775.84;;;12.27;89.94
17060;BME280;8646;49.716;9.266;2023-04-30T05:14:33;100776.38;;;12.35;89.45
17060;BME280;8646;49.716;9.266;2023-04-30T05:17:37;100771.53;;;12.43;89.43
17060;BME280;8646;49.716;9.266;2023-04-30T05:20:41;100772.28;;;12.47;89.16
17060;BME280;8646;49.716;9.266;2023-04-30T05:23:44;100771.88;;;12.56;89.23
17060;BME280;8646;49.716;9.266;2023-04-30T05:26:47;100770.72;;;12.61;89.08
17060;BME280;8646;49.716;9.266;2023-04-30T05:29:49;100776.47;;;12.74;88.47
17060;BME280;8646;49.716;9.266;2023-04-30T05:32:53;100773.16;;;12.88;88.01
17060;BME280;8646;49.716;9.266;2023-04-30T05:35:58;100765.28;;;13.02;87.81
17060;BME280;8646;49.716;9.266;2023-04-30T05:39:01;100765.34;;;13.21;87.29
17060;BME280;8646;49.716;9.266;2023-04-30T05:42:05;100766.41;;;13.37;86.28
17060;BME280;8646;49.716;9.266;2023-04-30T05:45:08;100771.97;;;13.53;85.87
17060;BME280;8646;49.716;9.266;2023-04-30T05:48:11;100763.84;;;14.07;82.24
17060;BME280;8646;49.716;9.266;2023-04-30T05:51:15;100752.31;;;14.20;79.81
17060;BME280;8646;49.716;9.266;2023-04-30T05:54:18;100746.94;;;14.54;77.94
17060;BME280;8646;49.716;9.266;2023-04-30T05:57:20;100739.66;;;15.05;76.08
17060;BME280;8646;49.716;9.266;2023-04-30T06:00:23;100748.84;;;15.19;74.65
17060;BME280;8646;49.716;9.266;2023-04-30T06:03:26;100739.28;;;15.28;72.97
17060;BME280;8646;49.716;9.266;2023-04-30T06:06:30;100744.75;;;15.44;72.23
17060;BME280;8646;49.716;9.266;2023-04-30T06:09:33;100743.09;;;15.08;70.51
17060;BME280;8646;49.716;9.266;2023-04-30T06:12:36;100741.56;;;14.70;69.73
17060;BME280;8646;49.716;9.266;2023-04-30T06:15:39;100740.31;;;14.42;68.83
17060;BME280;8646;49.716;9.266;2023-04-30T06:18:42;100749.69;;;14.18;68.93
17060;BME280;8646;49.716;9.266;2023-04-30T06:21:46;100742.69;;;14.12;68.96
17060;BME280;8646;49.716;9.266;2023-04-30T06:24:50;100731.72;;;15.00;65.19
17060;BME280;8646;49.716;9.266;2023-04-30T06:27:54;100730.69;;;15.51;63.06
17060;BME280;8646;49.716;9.266;2023-04-30T06:30:56;100723.50;;;15.82;62.08
17060;BME280;8646;49.716;9.266;2023-04-30T06:33:59;100724.91;;;15.73;60.78
17060;BME280;8646;49.716;9.266;2023-04-30T06:37:04;100735.06;;;15.55;60.79
17060;BME280;8646;49.716;9.266;2023-04-30T06:40:07;100735.66;;;15.76;58.82
17060;BME280;8646;49.716;9.266;2023-04-30T06:43:10;100728.91;;;15.50;59.11
17060;BME280;8646;49.716;9.266;2023-04-30T06:46:13;100733.16;;;15.40;58.87
17060;BME280;8646;49.716;9.266;2023-04-30T06:49:16;100733.16;;;15.40;58.17
17060;BME280;8646;49.716;9.266;2023-04-30T06:52:20;100740.53;;;15.38;58.60
17060;BME280;8646;49.716;9.266;2023-04-30T06:55:23;100734.63;;;14.97;60.91
17060;BME280;8646;49.716;9.266;2023-04-30T06:58:26;100748.75;;;14.88;61.50
17060;BME280;8646;49.716;9.266;2023-04-30T07:01:29;100736.63;;;15.26;61.01
17060;BME280;8646;49.716;9.266;2023-04-30T07:04:32;100738.97;;;16.28;58.72
17060;BME280;8646;49.716;9.266;2023-04-30T07:07:36;100722.88;;;16.38;56.80
17060;BME280;8646;49.716;9.266;2023-04-30T07:10:38;100727.59;;;16.20;55.88
17060;BME280;8646;49.716;9.266;2023-04-30T07:13:41;100732.47;;;15.99;56.22
17060;BME280;8646;49.716;9.266;2023-04-30T07:16:44;100726.84;;;15.87;58.17
17060;BME280;8646;49.716;9.266;2023-04-30T07:19:46;100733.59;;;16.11;56.85
17060;BME280;8646;49.716;9.266;2023-04-30T07:22:51;100720.47;;;16.48;55.86
17060;BME280;8646;49.716;9.266;2023-04-30T07:25:55;100725.19;;;16.90;54.23
17060;BME280;8646;49.716;9.266;2023-04-30T07:28:58;100715.72;;;17.09;52.62
17060;BME280;8646;49.716;9.266;2023-04-30T07:32:01;100714.56;;;16.99;51.64
17060;BME280;8646;49.716;9.266;2023-04-30T07:35:04;100710.25;;;17.24;51.78
17060;BME280;8646;49.716;9.266;2023-04-30T07:38:08;100708.28;;;17.40;51.67
17060;BME280;8646;49.716;9.266;2023-04-30T07:41:12;100711.59;;;17.59;51.35
17060;BME280;8646;49.716;9.266;2023-04-30T07:44:15;100707.00;;;17.74;50.83
17060;BME280;8646;49.716;9.266;2023-04-30T07:47:18;100716.91;;;17.34;51.28
17060;BME280;8646;49.716;9.266;2023-04-30T07:50:21;100721.28;;;17.22;52.08
17060;BME280;8646;49.716;9.266;2023-04-30T07:53:25;100707.53;;;17.24;51.11
17060;BME280;8646;49.716;9.266;2023-04-30T07:56:28;100708.19;;;17.27;50.43
17060;BME280;8646;49.716;9.266;2023-04-30T07:59:30;100709.66;;;17.47;50.45
17060;BME280;8646;49.716;9.266;2023-04-30T08:02:33;100694.81;;;17.37;48.61
17060;BME280;8646;49.716;9.266;2023-04-30T08:05:37;100707.50;;;17.38;48.73
17060;BME280;8646;49.716;9.266;2023-04-30T08:08:42;100710.47;;;17.35;48.96
17060;BME280;8646;49.716;9.266;2023-04-30T08:11:49;100711.81;;;17.28;48.60
17060;BME280;8646;49.716;9.266;2023-04-30T08:14:58;100716.31;;;17.00;49.61
17060;BME280;8646;49.716;9.266;2023-04-30T08:18:01;100721.38;;;16.78;50.78
17060;BME280;8646;49.716;9.266;2023-04-30T08:21:04;100720.28;;;16.51;52.39
17060;BME280;8646;49.716;9.266;2023-04-30T08:24:08;100724.75;;;16.37;51.33
17060;BME280;8646;49.716;9.266;2023-04-30T08:27:11;100719.22;;;16.23;52.49
17060;BME280;8646;49.716;9.266;2023-04-30T08:30:14;100715.44;;;16.26;51.94
17060;BME280;8646;49.716;9.266;2023-04-30T08:33:16;100714.97;;;16.33;51.80
17060;BME280;8646;49.716;9.266;2023-04-30T08:36:19;100720.28;;;16.51;51.47
17060;BME280;8646;49.716;9.266;2023-04-30T08:39:23;100712.69;;;16.56;51.57
17060;BME280;8646;49.716;9.266;2023-04-30T08:42:30;100703.78;;;16.68;52.29
17060;BME280;8646;49.716;9.266;2023-04-30T08:45:34;100706.75;;;17.07;49.45
17060;BME280;8646;49.716;9.266;2023-04-30T08:48:38;100706.16;;;17.02;50.68
17060;BME280;8646;49.716;9.266;2023-04-30T08:51:41;100697.47;;;17.24;48.99
17060;BME280;8646;49.716;9.266;2023-04-30T08:54:46;100691.31;;;17.35;48.45
17060;BME280;8646;49.716;9.266;2023-04-30T08:57:49;100700.50;;;17.34;48.21
17060;BME280;8646;49.716;9.266;2023-04-30T09:00:52;100693.94;;;17.50;47.79
17060;BME280;8646;49.716;9.266;2023-04-30T09:03:56;100702.81;;;17.40;48.54
17060;BME280;8646;49.716;9.266;2023-04-30T09:06:59;100703.75;;;17.53;48.41
17060;BME280;8646;49.716;9.266;2023-04-30T09:10:13;100692.63;;;17.70;46.82
17060;BME280;8646;49.716;9.266;2023-04-30T09:13:16;100698.69;;;17.75;46.74
17060;BME280;8646;49.716;9.266;2023-04-30T09:16:19;100685.56;;;17.80;47.24
17060;BME280;8646;49.716;9.266;2023-04-30T09:19:24;100690.06;;;17.81;46.03
17060;BME280;8646;49.716;9.266;2023-04-30T09:22:27;100692.38;;;17.87;46.33
17060;BME280;8646;49.716;9.266;2023-04-30T09:25:38;100685.59;;;17.93;46.67
17060;BME280;8646;49.716;9.266;2023-04-30T09:28:53;100677.38;;;18.20;46.24
17060;BME280;8646;49.716;9.266;2023-04-30T09:32:07;100667.56;;;18.30;45.42
17060;BME280;8646;49.716;9.266;2023-04-30T09:35:27;100666.97;;;18.25;44.91
17060;BME280;8646;49.716;9.266;2023-04-30T09:38:31;100662.25;;;18.14;45.29
17060;BME280;8646;49.716;9.266;2023-04-30T09:41:36;100662.03;;;18.17;44.43
17060;BME280;8646;49.716;9.266;2023-04-30T09:44:39;100659.63;;;18.25;42.78
17060;BME280;8646;49.716;9.266;2023-04-30T09:47:42;100666.44;;;18.20;42.85
17060;BME280;8646;49.716;9.266;2023-04-30T09:50:47;100653.97;;;18.02;43.44
17060;BME280;8646;49.716;9.266;2023-04-30T09:53:50;100638.00;;;18.08;43.04
17060;BME280;8646;49.716;9.266;2023-04-30T09:56:56;100659.78;;;18.24;42.60
17060;BME280;8646;49.716;9.266;2023-04-30T10:00:01;100629.59;;;18.11;42.95
17060;BME280;8646;49.716;9.266;2023-04-30T10:03:06;100654.19;;;18.38;41.70
17060;BME280;8646;49.716;9.266;2023-04-30T10:06:11;100650.81;;;18.47;40.86
17060;BME280;8646;49.716;9.266;2023-04-30T10:09:16;100645.47;;;18.58;40.60
17060;BME280;8646;49.716;9.266;2023-04-30T10:12:23;100642.84;;;18.57;41.65
17060;BME280;8646;49.716;9.266;2023-04-30T10:15:31;100636.94;;;18.76;40.18
17060;BME280;8646;49.716;9.266;2023-04-30T10:18:38;100625.66;;;18.80;40.38
17060;BME280;8646;49.716;9.266;2023-04-30T10:21:45;100629.25;;;18.68;40.83
17060;BME280;8646;49.716;9.266;2023-04-30T10:24:49;100623.22;;;18.76;40.24
17060;BME280;8646;49.716;9.266;2023-04-30T10:27:53;100618.19;;;18.70;40.33
17060;BME280;8646;49.716;9.266;2023-04-30T10:30:57;100616.97;;;18.74;39.81
17060;BME280;8646;49.716;9.266;2023-04-30T10:34:06;100609.75;;;18.85;39.01
17060;BME280;8646;49.716;9.266;2023-04-30T10:37:19;100589.78;;;18.96;39.19
17060;BME280;8646;49.716;9.266;2023-04-30T10:40:25;100594.59;;;19.05;39.32
17060;BME280;8646;49.716;9.266;2023-04-30T10:43:30;100605.94;;;19.24;39.37
17060;BME280;8646;49.716;9.266;2023-04-30T10:46:34;100603.28;;;19.35;39.40
17060;BME280;8646;49.716;9.266;2023-04-30T10:49:38;100592.94;;;19.52;38.83
17060;BME280;8646;49.716;9.266;2023-04-30T10:52:43;100595.72;;;19.63;38.55
17060;BME280;8646;49.716;9.266;2023-04-30T10:55:47;100589.53;;;19.72;38.59
17060;BME280;8646;49.716;9.266;2023-04-30T10:58:52;100584.41;;;19.67;37.98
17060;BME280;8646;49.716;9.266;2023-04-30T11:01:56;100591.94;;;19.76;38.43
17060;BME280;8646;49.716;9.266;2023-04-30T11:05:10;100579.72;;;19.80;37.95
17060;BME280;8646;49.716;9.266;2023-04-30T11:08:14;100588.91;;;19.92;37.34
17060;BME280;8646;49.716;9.266;2023-04-30T11:11:18;100578.97;;;20.02;36.92
17060;BME280;8646;49.716;9.266;2023-04-30T11:14:23;100563.13;;;20.17;36.15
17060;BME280;8646;49.716;9.266;2023-04-30T11:17:26;100573.00;;;20.19;36.18
17060;BME280;8646;49.716;9.266;2023-04-30T11:20:30;100576.28;;;20.25;36.93
17060;BME280;8646;49.716;9.266;2023-04-30T11:23:33;100571.34;;;20.41;36.47
17060;BME280;8646;49.716;9.266;2023-04-30T11:27:03;100567.19;;;20.35;36.29
17060;BME280;8646;49.716;9.266;2023-04-30T11:30:11;100565.78;;;20.18;36.12
17060;BME280;8646;49.716;9.266;2023-04-30T11:33:16;100561.50;;;20.14;36.25
17060;BME280;8646;49.716;9.266;2023-04-30T11:36:19;100563.47;;;20.01;36.47
17060;BME280;8646;49.716;9.266;2023-04-30T11:39:24;100550.38;;;20.16;36.24
17060;BME280;8646;49.716;9.266;2023-04-30T11:42:28;100547.38;;;20.43;35.63
17060;BME280;8646;49.716;9.266;2023-04-30T11:45:33;100548.72;;;20.60;33.96
17060;BME280;8646;49.716;9.266;2023-04-30T11:48:37;100548.72;;;20.37;35.15
17060;BME280;8646;49.716;9.266;2023-04-30T11:51:40;100531.47;;;20.35;34.74
17060;BME280;8646;49.716;9.266;2023-04-30T11:54:42;100555.22;;;20.01;35.76
17060;BME280;8646;49.716;9.266;2023-04-30T11:57:46;100546.53;;;20.18;35.01
17060;BME280;8646;49.716;9.266;2023-04-30T12:00:51;100541.84;;;20.54;34.73
17060;BME280;8646;49.716;9.266;2023-04-30T12:03:55;100505.88;;;20.90;33.94
17060;BME280;8646;49.716;9.266;2023-04-30T12:06:59;100542.00;;;20.97;35.08
17060;BME280;8646;49.716;9.266;2023-04-30T12:10:03;100544.63;;;20.87;34.83
17060;BME280;8646;49.716;9.266;2023-04-30T12:13:06;100537.16;;;20.67;34.72
17060;BME280;8646;49.716;9.266;2023-04-30T12:16:10;100534.88;;;20.83;33.59
17060;BME280;8646;49.716;9.266;2023-04-30T12:19:13;100536.38;;;20.87;33.94
17060;BME280;8646;49.716;9.266;2023-04-30T12:22:16;100540.63;;;20.80;34.32
17060;BME280;8646;49.716;9.266;2023-04-30T12:25:20;100526.25;;;20.99;33.64
17060;BME280;8646;49.716;9.266;2023-04-30T12:28:23;100522.97;;;21.27;32.92
17060;BME280;8646;49.716;9.266;2023-04-30T12:31:30;100525.38;;;21.53;32.74
17060;BME280;8646;49.716;9.266;2023-04-30T12:34:36;100513.53;;;21.73;31.43
17060;BME280;8646;49.716;9.266;2023-04-30T12:37:43;100515.22;;;21.64;31.35
17060;BME280;8646;49.716;9.266;2023-04-30T12:40:46;100517.66;;;21.47;31.61
17060;BME280;8646;49.716;9.266;2023-04-30T12:43:50;100517.03;;;21.43;31.68
17060;BME280;8646;49.716;9.266;2023-04-30T12:46:54;100505.25;;;21.52;31.55
17060;BME280;8646;49.716;9.266;2023-04-30T12:49:58;100499.81;;;21.62;31.74
17060;BME280;8646;49.716;9.266;2023-04-30T12:53:01;100508.19;;;21.28;32.44
17060;BME280;8646;49.716;9.266;2023-04-30T12:56:09;100495.97;;;20.99;31.29
17060;BME280;8646;49.716;9.266;2023-04-30T12:59:14;100488.63;;;20.77;31.89
17060;BME280;8646;49.716;9.266;2023-04-30T13:02:22;100494.38;;;20.63;32.82
17060;BME280;8646;49.716;9.266;2023-04-30T13:05:26;100503.63;;;20.62;33.29
17060;BME280;8646;49.716;9.266;2023-04-30T13:08:28;100505.88;;;20.79;32.90
17060;BME280;8646;49.716;9.266;2023-04-30T13:11:35;100486.69;;;21.00;32.54
17060;BME280;8646;49.716;9.266;2023-04-30T13:14:38;100485.56;;;21.25;32.13
17060;BME280;8646;49.716;9.266;2023-04-30T13:17:42;100473.94;;;21.53;31.53
17060;BME280;8646;49.716;9.266;2023-04-30T13:20:45;100460.41;;;21.82;31.33
17060;BME280;8646;49.716;9.266;2023-04-30T13:23:48;100463.59;;;21.98;31.46
17060;BME280;8646;49.716;9.266;2023-04-30T13:26:54;100462.97;;;22.16;31.60
17060;BME280;8646;49.716;9.266;2023-04-30T13:30:01;100448.00;;;22.29;31.27
17060;BME280;8646;49.716;9.266;2023-04-30T13:33:05;100453.75;;;22.57;31.30
17060;BME280;8646;49.716;9.266;2023-04-30T13:36:08;100443.41;;;22.79;30.94
17060;BME280;8646;49.716;9.266;2023-04-30T13:39:11;100447.47;;;22.75;30.80
17060;BME280;8646;49.716;9.266;2023-04-30T13:42:14;100443.28;;;22.51;30.90
17060;BME280;8646;49.716;9.266;2023-04-30T13:45:16;100451.00;;;22.26;31.40
17060;BME280;8646;49.716;9.266;2023-04-30T13:48:21;100448.94;;;21.98;31.57
17060;BME280;8646;49.716;9.266;2023-04-30T13:51:23;100428.03;;;21.95;31.18
17060;BME280;8646;49.716;9.266;2023-04-30T13:54:27;100436.28;;;22.16;31.19
17060;BME280;8646;49.716;9.266;2023-04-30T13:57:30;100437.91;;;22.19;31.44
17060;BME280;8646;49.716;9.266;2023-04-30T14:00:34;100437.50;;;22.23;31.28
17060;BME280;8646;49.716;9.266;2023-04-30T14:03:38;100423.25;;;22.18;30.99
17060;BME280;8646;49.716;9.266;2023-04-30T14:06:42;100435.16;;;21.98;30.69
17060;BME280;8646;49.716;9.266;2023-04-30T14:09:46;100431.53;;;21.97;30.60
17060;BME280;8646;49.716;9.266;2023-04-30T14:12:48;100428.16;;;21.94;30.78
17060;BME280;8646;49.716;9.266;2023-04-30T14:15:52;100423.88;;;22.01;30.71
17060;BME280;8646;49.716;9.266;2023-04-30T14:18:57;100405.59;;;22.21;30.74
17060;BME280;8646;49.716;9.266;2023-04-30T14:22:02;100421.28;;;22.30;30.78
17060;BME280;8646;49.716;9.266;2023-04-30T14:25:05;100414.44;;;22.24;30.21
17060;BME280;8646;49.716;9.266;2023-04-30T14:28:08;100409.63;;;21.96;30.88
17060;BME280;8646;49.716;9.266;2023-04-30T14:31:16;100408.84;;;21.63;31.55
17060;BME280;8646;49.716;9.266;2023-04-30T14:34:20;100410.63;;;21.53;30.74
17060;BME280;8646;49.716;9.266;2023-04-30T14:37:23;100415.03;;;21.13;31.54
17060;BME280;8646;49.716;9.266;2023-04-30T14:40:25;100410.25;;;21.26;31.50
17060;BME280;8646;49.716;9.266;2023-04-30T14:43:28;100403.41;;;21.41;31.70
17060;BME280;8646;49.716;9.266;2023-04-30T14:46:31;100396.66;;;21.66;31.38
17060;BME280;8646;49.716;9.266;2023-04-30T14:49:36;100391.22;;;21.96;31.14
17060;BME280;8646;49.716;9.266;2023-04-30T14:52:39;100381.59;;;22.12;30.66
17060;BME280;8646;49.716;9.266;2023-04-30T14:55:42;100388.63;;;22.25;30.87
17060;BME280;8646;49.716;9.266;2023-04-30T14:58:45;100376.75;;;22.34;30.81
17060;BME280;8646;49.716;9.266;2023-04-30T15:01:48;100385.47;;;22.39;30.48
17060;BME280;8646;49.716;9.266;2023-04-30T15:04:52;100380.88;;;22.50;30.49
17060;BME280;8646;49.716;9.266;2023-04-30T15:07:55;100370.28;;;22.45;30.00
17060;BME280;8646;49.716;9.266;2023-04-30T15:10:58;100370.06;;;22.27;30.00
17060;BME280;8646;49.716;9.266;2023-04-30T15:14:01;100380.31;;;21.74;31.05
17060;BME280;8646;49.716;9.266;2023-04-30T15:17:04;100378.53;;;21.63;31.39
17060;BME280;8646;49.716;9.266;2023-04-30T15:20:09;100374.78;;;21.64;31.50
17060;BME280;8646;49.716;9.266;2023-04-30T15:23:12;100373.56;;;21.78;31.45
17060;BME280;8646;49.716;9.266;2023-04-30T15:26:15;100364.16;;;21.81;31.46
17060;BME280;8646;49.716;9.266;2023-04-30T15:29:17;100363.78;;;21.95;31.44
17060;BME280;8646;49.716;9.266;2023-04-30T15:32:20;100365.47;;;22.07;31.37
17060;BME280;8646;49.716;9.266;2023-04-30T15:35:24;100363.91;;;22.14;31.21
17060;BME280;8646;49.716;9.266;2023-04-30T15:38:28;100370.84;;;22.08;31.58
17060;BME280;8646;49.716;9.266;2023-04-30T15:41:31;100370.13;;;21.86;31.60
17060;BME280;8646;49.716;9.266;2023-04-30T15:44:34;100372.66;;;21.57;31.75
17060;BME280;8646;49.716;9.266;2023-04-30T15:47:37;100364.38;;;21.47;30.78
17060;BME280;8646;49.716;9.266;2023-04-30T15:50:41;100369.66;;;21.07;31.71
17060;BME280;8646;49.716;9.266;2023-04-30T15:53:44;100365.19;;;20.95;32.17
17060;BME280;8646;49.716;9.266;2023-04-30T15:56:46;100369.00;;;20.83;32.53
17060;BME280;8646;49.716;9.266;2023-04-30T15:59:49;100362.31;;;20.97;32.32
17060;BME280;8646;49.716;9.266;2023-04-30T16:02:52;100354.31;;;21.25;32.25
17060;BME280;8646;49.716;9.266;2023-04-30T16:05:57;100351.81;;;21.54;31.83
17060;BME280;8646;49.716;9.266;2023-04-30T16:09:01;100346.41;;;21.74;30.92
17060;BME280;8646;49.716;9.266;2023-04-30T16:12:07;100342.78;;;21.73;31.21
17060;BME280;8646;49.716;9.266;2023-04-30T16:15:10;100334.56;;;21.83;31.22